Time;durP1;ratioP1;P1;durP2;ratioP2;P2;SDS_P1;SDS_P2;PMS_P1;PMS_P2;Temp;Humidity;BMP_temperature;BMP_pressure;BME280_temperature;BME280_humidity;BME280_pressure;Samples;Min_cycle;Max_cycle;Signal;HPM_P1;HPM_P2
2022/12/20 00:00:47;;;;;;;13.40;5.30;;;6.60;99.90;;;;;;4933204;29;20035;-70
2022/12/20 00:03:13;;;;;;;14.20;6.25;;;6.50;99.90;;;;;;4919844;29;20040;-70
2022/12/20 00:05:41;;;;;;;12.20;5.25;;;6.40;99.90;;;;;;4931444;29;20132;-70
2022/12/20 00:08:09;;;;;;;12.73;6.05;;;6.40;99.90;;;;;;4933141;29;20075;-69
2022/12/20 00:10:44;;;;;;;12.73;5.95;;;6.40;99.90;;;;;;4908207;29;20059;-70
2022/12/20 00:13:11;;;;;;;12.30;5.22;;;6.40;99.90;;;;;;4920434;29;20035;-70
2022/12/20 00:15:37;;;;;;;15.30;5.47;;;6.30;99.90;;;;;;4915814;29;20071;-70
2022/12/20 00:18:03;;;;;;;13.75;5.40;;;6.30;99.90;;;;;;4933004;29;20126;-70
2022/12/20 00:20:29;;;;;;;12.32;5.47;;;6.30;99.90;;;;;;4931293;29;20047;-70
2022/12/20 00:22:55;;;;;;;17.17;5.75;;;6.30;99.90;;;;;;4933045;29;20083;-70
2022/12/20 00:25:22;;;;;;;13.95;5.18;;;6.20;99.90;;;;;;4932546;29;20036;-70
2022/12/20 00:27:48;;;;;;;13.80;7.00;;;6.20;99.90;;;;;;4933135;29;20031;-70
2022/12/20 00:30:16;;;;;;;9.88;5.03;;;6.20;99.90;;;;;;4907535;29;20492;-69
2022/12/20 00:32:43;;;;;;;13.98;4.85;;;6.30;99.90;;;;;;4932919;29;20083;-70
2022/12/20 00:35:09;;;;;;;15.13;5.78;;;6.20;99.90;;;;;;4908140;29;20072;-70
2022/12/20 00:37:35;;;;;;;12.25;5.72;;;6.20;99.90;;;;;;4933058;29;20031;-70
2022/12/20 00:40:02;;;;;;;14.15;5.63;;;6.20;99.90;;;;;;4932247;29;20099;-70
2022/12/20 00:42:28;;;;;;;11.80;4.55;;;6.10;99.90;;;;;;4923939;29;20028;-70
2022/12/20 00:44:54;;;;;;;10.65;5.25;;;6.10;99.90;;;;;;4907673;29;20593;-70
2022/12/20 00:47:19;;;;;;;13.98;5.25;;;6.10;99.90;;;;;;4923820;29;20027;-70
2022/12/20 00:49:45;;;;;;;9.13;4.45;;;6.10;99.90;;;;;;4932309;29;20392;-70
2022/12/20 00:52:11;;;;;;;9.63;5.18;;;6.10;99.90;;;;;;4932560;29;20657;-69
2022/12/20 00:54:36;;;;;;;9.48;4.90;;;6.10;99.90;;;;;;4932473;29;20047;-70
2022/12/20 00:57:02;;;;;;;11.55;5.28;;;6.20;99.90;;;;;;4935307;29;20035;-70
2022/12/20 00:59:28;;;;;;;13.10;4.95;;;6.20;99.90;;;;;;4935763;29;20039;-70
2022/12/20 01:01:54;;;;;;;16.92;5.75;;;6.10;99.90;;;;;;4926514;29;20035;-69
2022/12/20 01:04:19;;;;;;;8.50;4.75;;;6.30;99.90;;;;;;4928883;23;20054;-67
2022/12/20 01:06:45;;;;;;;14.23;5.32;;;6.30;99.90;;;;;;4926985;29;20572;-67
2022/12/20 01:09:11;;;;;;;15.40;6.55;;;6.30;99.90;;;;;;4924768;29;20432;-67
2022/12/20 01:11:38;;;;;;;10.68;4.30;;;6.40;99.90;;;;;;4918930;29;20046;-67
2022/12/20 01:14:12;;;;;;;11.35;4.78;;;6.30;99.90;;;;;;4920873;29;20031;-67
2022/12/20 01:16:47;;;;;;;10.77;4.60;;;6.30;99.90;;;;;;4922317;29;20043;-67
2022/12/20 01:19:16;;;;;;;11.63;5.18;;;6.40;99.90;;;;;;4934798;29;20032;-67
2022/12/20 01:21:45;;;;;;;12.20;4.18;;;6.50;99.90;;;;;;4930404;29;20043;-67
2022/12/20 01:24:16;;;;;;;9.90;4.63;;;6.50;99.90;;;;;;4928070;29;20028;-67
2022/12/20 01:26:42;;;;;;;10.95;4.88;;;6.40;99.90;;;;;;4930389;29;20040;-67
2022/12/20 01:29:08;;;;;;;8.43;4.35;;;6.40;99.90;;;;;;4927792;29;20483;-67
2022/12/20 01:31:34;;;;;;;11.93;5.20;;;6.40;99.90;;;;;;4907689;29;20075;-67
2022/12/20 01:34:01;;;;;;;8.18;4.45;;;6.30;99.90;;;;;;4915193;29;20077;-67
2022/12/20 01:36:31;;;;;;;8.77;4.00;;;6.30;99.90;;;;;;4896000;29;20039;-67
2022/12/20 01:39:03;;;;;;;9.82;4.88;;;6.30;99.90;;;;;;4915150;29;20036;-67
2022/12/20 01:41:31;;;;;;;10.20;5.07;;;6.30;99.90;;;;;;4899272;29;20043;-68
2022/12/20 01:44:05;;;;;;;8.57;4.05;;;6.30;99.90;;;;;;4893350;29;20039;-68
2022/12/20 01:46:38;;;;;;;12.57;5.05;;;6.40;99.90;;;;;;4905146;29;20047;-66
2022/12/20 01:49:26;;;;;;;8.70;4.93;;;6.50;99.90;;;;;;4896243;29;20112;-66
2022/12/20 01:52:08;;;;;;;11.60;5.30;;;6.50;99.90;;;;;;4898477;29;20067;-66
2022/12/20 01:54:38;;;;;;;12.20;5.47;;;6.40;99.90;;;;;;4914977;29;20032;-66
2022/12/20 01:57:11;;;;;;;12.55;5.88;;;6.40;99.90;;;;;;4918331;29;20063;-65
2022/12/20 01:59:39;;;;;;;12.80;6.78;;;6.50;99.90;;;;;;4918722;29;20152;-66
2022/12/20 02:02:09;;;;;;;10.63;4.60;;;6.40;99.90;;;;;;4909007;29;20195;-66
2022/12/20 02:04:35;;;;;;;11.10;5.37;;;6.40;99.90;;;;;;4918906;29;20059;-66
2022/12/20 02:07:03;;;;;;;10.32;5.07;;;6.50;99.90;;;;;;4891692;29;20064;-66
2022/12/20 02:09:32;;;;;;;7.75;4.20;;;6.40;99.90;;;;;;4898701;29;20396;-66
2022/12/20 02:12:15;;;;;;;11.02;4.63;;;6.40;99.90;;;;;;4916832;29;20032;-67
2022/12/20 02:15:19;;;;;;;6.90;4.10;;;6.40;99.90;;;;;;4917118;29;20035;-66
2022/12/20 02:18:08;;;;;;;9.52;4.72;;;6.40;99.90;;;;;;4922900;29;20130;-66
2022/12/20 02:20:45;;;;;;;7.68;3.97;;;6.50;99.90;;;;;;4933384;29;20446;-66
2022/12/20 02:23:49;;;;;;;7.50;3.28;;;6.50;99.90;;;;;;4919690;29;20408;-66
2022/12/20 02:27:19;;;;;;;17.10;4.70;;;6.50;99.90;;;;;;4915402;29;20116;-66
2022/12/20 02:30:06;;;;;;;7.75;4.88;;;6.50;99.90;;;;;;4861014;29;20033;-66
2022/12/20 02:32:50;;;;;;;14.38;4.72;;;6.50;99.90;;;;;;4905982;29;20046;-66
2022/12/20 02:35:27;;;;;;;8.75;3.55;;;6.60;99.90;;;;;;4931114;29;20114;-66
2022/12/20 02:37:57;;;;;;;8.27;3.92;;;6.70;99.90;;;;;;4920953;29;20032;-66
2022/12/20 02:40:29;;;;;;;10.43;4.07;;;6.80;99.90;;;;;;4929767;29;20063;-66
2022/12/20 02:42:59;;;;;;;11.18;4.78;;;6.80;99.90;;;;;;4903491;29;20044;-66
2022/12/20 02:45:32;;;;;;;7.72;3.85;;;6.70;99.90;;;;;;4917203;29;20038;-66
2022/12/20 02:48:10;;;;;;;6.45;4.32;;;6.70;99.90;;;;;;4923986;29;20039;-66
2022/12/20 02:50:45;;;;;;;11.60;4.13;;;6.70;99.90;;;;;;4917126;29;20508;-66
2022/12/20 02:53:13;;;;;;;9.13;4.30;;;6.80;99.90;;;;;;4906142;29;20172;-67
2022/12/20 02:56:09;;;;;;;8.68;4.47;;;6.90;99.90;;;;;;4917078;29;20543;-66
2022/12/20 02:59:05;;;;;;;6.72;3.65;;;6.80;99.90;;;;;;4900024;29;20416;-66
2022/12/20 03:01:38;;;;;;;6.75;3.53;;;6.80;99.90;;;;;;4909312;29;20036;-66
2022/12/20 03:04:05;;;;;;;6.30;3.45;;;6.70;99.90;;;;;;4893485;29;20032;-66
2022/12/20 03:06:31;;;;;;;9.15;3.47;;;6.70;99.90;;;;;;4908168;29;20104;-66
2022/12/20 03:08:57;;;;;;;12.93;4.88;;;6.70;99.90;;;;;;4925620;29;20171;-66
2022/12/20 03:11:22;;;;;;;6.13;3.85;;;6.50;99.90;;;;;;4928352;29;20043;-67
2022/12/20 03:13:48;;;;;;;9.77;4.47;;;6.50;99.90;;;;;;4925764;29;20031;-66
2022/12/20 03:16:14;;;;;;;6.95;3.75;;;6.50;99.90;;;;;;4917976;29;20040;-66
2022/12/20 03:18:39;;;;;;;6.82;3.38;;;6.50;99.90;;;;;;4924745;29;20071;-66
2022/12/20 03:21:05;;;;;;;9.02;4.28;;;6.50;99.90;;;;;;4929816;29;20040;-66
2022/12/20 03:23:31;;;;;;;7.97;3.90;;;6.50;99.90;;;;;;4929510;29;20038;-68
2022/12/20 03:25:57;;;;;;;11.75;4.20;;;6.50;99.90;;;;;;4913529;29;20038;-67
2022/12/20 03:28:23;;;;;;;7.35;3.80;;;6.50;99.90;;;;;;4923149;29;20385;-66
2022/12/20 03:30:49;;;;;;;10.02;4.30;;;6.50;99.90;;;;;;4931824;29;20027;-67
2022/12/20 03:33:15;;;;;;;8.73;3.35;;;6.50;99.90;;;;;;4922052;29;20096;-67
2022/12/20 03:35:40;;;;;;;9.02;4.18;;;6.50;99.90;;;;;;4916211;29;20484;-67
2022/12/20 03:38:06;;;;;;;8.32;4.50;;;6.60;99.90;;;;;;4922043;29;20048;-67
2022/12/20 03:40:32;;;;;;;11.52;4.78;;;6.70;99.90;;;;;;4916125;29;20035;-67
2022/12/20 03:42:58;;;;;;;11.07;4.78;;;6.80;99.90;;;;;;4922642;29;20225;-67
2022/12/20 03:45:26;;;;;;;5.22;3.05;;;6.80;99.90;;;;;;4931299;29;20079;-67
2022/12/20 03:47:52;;;;;;;5.30;2.78;;;6.80;99.90;;;;;;4904104;29;20028;-67
2022/12/20 03:50:18;;;;;;;8.15;3.88;;;6.80;99.90;;;;;;4929943;29;20058;-67
2022/12/20 03:52:43;;;;;;;9.55;3.42;;;6.80;99.90;;;;;;4924650;29;20044;-67
2022/12/20 03:55:11;;;;;;;7.63;3.33;;;6.70;99.90;;;;;;4931805;29;20046;-67
2022/12/20 03:57:37;;;;;;;7.75;3.72;;;6.80;99.90;;;;;;4921686;29;20040;-67
2022/12/20 04:00:05;;;;;;;14.05;4.22;;;6.80;99.90;;;;;;4915973;29;20472;-67
2022/12/20 04:02:31;;;;;;;10.07;3.95;;;6.80;99.90;;;;;;4920458;29;20545;-67
2022/12/20 04:04:56;;;;;;;5.18;3.15;;;6.80;99.90;;;;;;4913571;29;20047;-67
2022/12/20 04:07:22;;;;;;;8.77;3.92;;;6.80;99.90;;;;;;4919226;29;20066;-67
2022/12/20 04:09:48;;;;;;;8.93;3.63;;;6.80;99.90;;;;;;4915621;29;20039;-67
2022/12/20 04:12:13;;;;;;;5.45;3.13;;;6.90;99.90;;;;;;4925367;29;20043;-67
2022/12/20 04:14:39;;;;;;;7.15;3.60;;;6.90;99.90;;;;;;4912939;29;20043;-67
2022/12/20 04:17:05;;;;;;;10.38;3.83;;;6.90;99.90;;;;;;4919910;29;20043;-67
2022/12/20 04:19:31;;;;;;;8.20;3.92;;;6.90;99.90;;;;;;4920194;29;20027;-67
2022/12/20 04:21:57;;;;;;;6.57;3.88;;;7.00;99.90;;;;;;4918586;29;20518;-67
2022/12/20 04:24:23;;;;;;;6.50;3.30;;;7.00;99.90;;;;;;4924734;29;20027;-67
2022/12/20 04:26:49;;;;;;;6.97;3.08;;;7.00;99.90;;;;;;4924200;29;20027;-68
2022/12/20 04:29:15;;;;;;;8.05;4.03;;;7.00;99.90;;;;;;4915792;29;20031;-67
2022/12/20 04:31:41;;;;;;;8.15;3.85;;;7.00;99.90;;;;;;4909958;29;20027;-67
2022/12/20 04:34:06;;;;;;;6.93;3.80;;;7.00;99.90;;;;;;4928392;29;20034;-67
2022/12/20 04:36:33;;;;;;;7.65;3.80;;;7.00;99.90;;;;;;4911693;29;20508;-68
2022/12/20 04:38:59;;;;;;;5.75;4.13;;;7.00;99.90;;;;;;4928348;29;20708;-68
2022/12/20 04:41:25;;;;;;;7.68;3.85;;;6.90;99.90;;;;;;4922339;29;20073;-67
2022/12/20 04:43:56;;;;;;;8.55;3.72;;;6.90;99.90;;;;;;4928374;29;20114;-68
2022/12/20 04:46:24;;;;;;;8.52;3.85;;;6.90;99.90;;;;;;4931130;29;20445;-67
2022/12/20 04:48:51;;;;;;;9.63;4.18;;;6.90;99.90;;;;;;4928443;29;20407;-67
2022/12/20 04:51:17;;;;;;;10.98;3.75;;;6.90;99.90;;;;;;4910489;29;20037;-67
2022/12/20 04:53:46;;;;;;;15.05;4.57;;;6.90;99.90;;;;;;4928053;29;20114;-67
2022/12/20 04:56:18;;;;;;;12.00;3.88;;;6.90;99.90;;;;;;4911510;29;20046;-67
2022/12/20 04:58:45;;;;;;;10.55;4.22;;;6.90;99.90;;;;;;4924773;29;20415;-68
2022/12/20 05:01:12;;;;;;;6.88;3.70;;;6.90;99.90;;;;;;4916217;29;20044;-67
2022/12/20 05:03:38;;;;;;;15.77;4.55;;;6.80;99.90;;;;;;4925770;29;20050;-67
2022/12/20 05:06:05;;;;;;;9.13;3.63;;;6.80;99.90;;;;;;4930557;29;20046;-67
2022/12/20 05:08:32;;;;;;;7.10;3.80;;;6.80;99.90;;;;;;4924731;29;20050;-67
2022/12/20 05:10:57;;;;;;;7.28;3.80;;;6.80;99.90;;;;;;4927336;29;20036;-67
2022/12/20 05:13:23;;;;;;;9.45;3.30;;;6.80;99.90;;;;;;4922878;29;20031;-68
2022/12/20 05:15:54;;;;;;;7.68;3.28;;;6.80;99.90;;;;;;4923248;29;20119;-67
2022/12/20 05:18:20;;;;;;;7.73;4.03;;;6.80;99.90;;;;;;4928946;29;20099;-66
2022/12/20 05:20:46;;;;;;;14.07;3.95;;;6.70;99.90;;;;;;4934552;29;20287;-67
2022/12/20 05:28:40;;;;;;;6.07;3.25;;;6.80;99.90;;;;;;4931724;29;20047;-66
2022/12/20 05:31:06;;;;;;;7.00;3.85;;;6.80;99.90;;;;;;4931503;29;20437;-65
2022/12/20 05:33:32;;;;;;;9.70;4.03;;;6.80;99.90;;;;;;4931049;29;20125;-67
2022/12/20 05:35:58;;;;;;;11.07;4.13;;;6.80;99.90;;;;;;4915718;29;20036;-67
2022/12/20 05:38:24;;;;;;;9.75;3.75;;;6.80;99.90;;;;;;4913509;29;20506;-67
2022/12/20 05:40:50;;;;;;;10.07;4.35;;;6.80;99.90;;;;;;4933158;29;20039;-67
2022/12/20 05:43:18;;;;;;;12.38;4.47;;;6.90;99.90;;;;;;4920114;29;20044;-67
2022/12/20 05:45:50;;;;;;;8.82;4.47;;;6.90;99.90;;;;;;4890236;29;20024;-67
2022/12/20 05:48:17;;;;;;;12.00;3.60;;;7.00;99.90;;;;;;4910620;29;20087;-67
2022/12/20 05:50:43;;;;;;;12.70;4.47;;;7.00;99.90;;;;;;4905800;29;20027;-67
2022/12/20 05:53:16;;;;;;;6.43;3.75;;;7.10;99.90;;;;;;4918168;29;20028;-67
2022/12/20 05:55:51;;;;;;;7.57;2.63;;;7.10;99.90;;;;;;4924757;29;20095;-66
2022/12/20 05:58:16;;;;;;;9.38;3.45;;;7.20;99.90;;;;;;4912248;29;20046;-67
2022/12/20 06:00:43;;;;;;;8.65;3.80;;;7.20;99.90;;;;;;4894091;29;20107;-66
2022/12/20 06:03:10;;;;;;;11.05;3.17;;;7.20;99.90;;;;;;4923309;29;20036;-67
2022/12/20 06:05:40;;;;;;;5.63;3.30;;;7.20;99.90;;;;;;4871272;29;20036;-66
2022/12/20 06:08:07;;;;;;;7.82;4.03;;;7.30;99.90;;;;;;4934106;29;20601;-66
2022/12/20 06:10:33;;;;;;;6.55;3.83;;;7.30;99.90;;;;;;4926837;29;20036;-66
2022/12/20 06:13:01;;;;;;;5.45;3.20;;;7.40;99.90;;;;;;4926608;29;20066;-66
2022/12/20 06:15:27;;;;;;;8.45;3.75;;;7.40;99.90;;;;;;4926555;29;20201;-66
2022/12/20 06:17:52;;;;;;;6.38;2.72;;;7.40;99.90;;;;;;4945959;29;20027;-66
2022/12/20 06:20:18;;;;;;;7.50;2.50;;;7.40;99.90;;;;;;4934038;29;20035;-66
2022/12/20 06:22:44;;;;;;;14.57;3.30;;;7.40;99.90;;;;;;4926686;29;20044;-67
2022/12/20 06:25:11;;;;;;;3.67;2.30;;;7.40;99.90;;;;;;4934595;29;20040;-66
2022/12/20 06:27:37;;;;;;;7.53;3.15;;;7.50;99.90;;;;;;4916223;29;20034;-67
2022/12/20 06:30:08;;;;;;;9.85;2.90;;;7.50;99.90;;;;;;4936397;29;20063;-67
2022/12/20 06:32:34;;;;;;;11.40;2.88;;;7.50;99.90;;;;;;4923739;29;20030;-66
2022/12/20 06:35:00;;;;;;;5.93;2.53;;;7.60;99.90;;;;;;4927954;29;20039;-66
2022/12/20 06:37:25;;;;;;;9.32;3.22;;;7.60;99.90;;;;;;4945143;29;20036;-66
2022/12/20 06:39:51;;;;;;;12.80;3.55;;;7.60;99.90;;;;;;4948969;29;20035;-67
2022/12/20 06:42:17;;;;;;;5.68;3.03;;;7.60;99.90;;;;;;4944955;29;20487;-68
2022/12/20 06:44:43;;;;;;;8.07;2.88;;;7.60;99.90;;;;;;4948646;29;20043;-67
2022/12/20 06:47:09;;;;;;;8.48;2.53;;;7.70;99.90;;;;;;4928294;29;20040;-67
2022/12/20 06:49:34;;;;;;;5.10;2.90;;;7.80;99.90;;;;;;4933117;29;20511;-67
2022/12/20 06:52:00;;;;;;;5.50;2.28;;;7.80;99.90;;;;;;4943551;29;20031;-68
2022/12/20 06:54:26;;;;;;;3.97;2.28;;;7.80;99.90;;;;;;4935603;28;20035;-67
2022/12/20 06:56:52;;;;;;;9.68;3.30;;;7.80;99.90;;;;;;4904897;29;20110;-66
2022/12/20 06:59:17;;;;;;;7.25;2.72;;;7.80;99.90;;;;;;4933132;29;20078;-66
2022/12/20 07:01:43;;;;;;;12.38;2.60;;;7.80;99.90;;;;;;4936259;29;20173;-65
2022/12/20 07:04:09;;;;;;;6.00;3.13;;;7.80;99.90;;;;;;4963111;23;20145;-71
2022/12/20 07:06:35;;;;;;;6.10;2.78;;;7.80;99.90;;;;;;4948610;29;20031;-73
2022/12/20 07:09:02;;;;;;;9.57;3.03;;;7.80;99.90;;;;;;4939178;29;20035;-73
2022/12/20 07:11:27;;;;;;;7.18;2.95;;;7.80;99.90;;;;;;4938707;29;20023;-73
2022/12/20 07:13:57;;;;;;;6.47;2.95;;;7.80;99.90;;;;;;4937370;29;20306;-73
2022/12/20 07:16:23;;;;;;;10.27;3.85;;;7.80;99.90;;;;;;4945021;29;20055;-73
2022/12/20 07:18:51;;;;;;;4.95;2.88;;;7.80;99.90;;;;;;4943819;29;20031;-75
2022/12/20 07:21:18;;;;;;;4.35;2.58;;;7.80;99.90;;;;;;4943307;29;20034;-73
2022/12/20 07:23:45;;;;;;;7.70;2.92;;;7.80;99.90;;;;;;4929858;29;20042;-73
2022/12/20 07:26:11;;;;;;;8.63;2.97;;;7.80;99.90;;;;;;4943408;29;20525;-73
2022/12/20 07:28:37;;;;;;;4.60;2.28;;;7.90;99.90;;;;;;4935714;29;20488;-73
2022/12/20 07:31:03;;;;;;;6.97;3.53;;;7.90;99.90;;;;;;4944869;29;20059;-73
2022/12/20 07:33:31;;;;;;;5.82;3.53;;;7.90;99.90;;;;;;4950313;29;20031;-73
2022/12/20 07:36:12;;;;;;;7.70;2.50;;;7.90;99.90;;;;;;4934100;29;20074;-72
2022/12/20 07:38:38;;;;;;;;;;;7.90;99.90;;;;;;4934516;29;20114;-73
2022/12/20 07:41:14;;;;;;;12.90;3.45;;;7.90;99.90;;;;;;4927803;29;19922;-73
2022/12/20 07:43:41;;;;;;;7.57;3.05;;;7.90;99.90;;;;;;4951296;29;20035;-72
2022/12/20 07:46:10;;;;;;;6.85;3.33;;;7.90;99.90;;;;;;4948138;29;20031;-74
2022/12/20 07:48:36;;;;;;;5.53;3.08;;;7.90;99.90;;;;;;4941749;29;20560;-72
2022/12/20 07:51:09;;;;;;;20.63;3.58;;;7.90;99.90;;;;;;4940850;29;20110;-71
2022/12/20 07:53:40;;;;;;;3.92;2.55;;;7.90;99.90;;;;;;4923690;29;21114;-72
2022/12/20 07:56:08;;;;;;;7.28;3.35;;;7.90;99.90;;;;;;4944529;29;20395;-72
2022/12/20 07:58:36;;;;;;;4.35;2.35;;;7.90;99.90;;;;;;4934750;29;20459;-72
2022/12/20 08:01:03;;;;;;;6.95;2.97;;;7.90;99.90;;;;;;4930719;29;20105;-71
2022/12/20 08:03:42;;;;;;;7.10;2.53;;;7.90;99.90;;;;;;4941527;29;20032;-71
2022/12/20 08:06:09;;;;;;;4.05;2.58;;;7.90;99.90;;;;;;4936106;29;20082;-72
2022/12/20 08:08:41;;;;;;;4.03;2.22;;;7.90;99.90;;;;;;4952947;29;20062;-72
2022/12/20 08:11:09;;;;;;;7.85;2.28;;;7.80;99.90;;;;;;4934355;29;20058;-72
2022/12/20 08:13:35;;;;;;;4.53;2.42;;;7.90;99.90;;;;;;4946551;29;20042;-73
2022/12/20 08:16:01;;;;;;;5.75;2.83;;;7.90;99.90;;;;;;4947128;29;20027;-73
2022/12/20 08:18:27;;;;;;;8.93;4.07;;;7.90;99.90;;;;;;4946453;28;20040;-73
2022/12/20 08:20:53;;;;;;;6.05;2.65;;;7.80;99.90;;;;;;4936137;29;20028;-72
2022/12/20 08:23:18;;;;;;;4.35;2.75;;;7.80;99.90;;;;;;4941453;29;20031;-72
2022/12/20 08:25:44;;;;;;;3.95;2.22;;;7.70;99.90;;;;;;4930443;29;20110;-73
2022/12/20 08:28:10;;;;;;;6.90;3.03;;;7.70;99.90;;;;;;4955391;29;20043;-72
2022/12/20 08:30:36;;;;;;;4.93;2.53;;;7.60;99.90;;;;;;4945301;29;20110;-72
2022/12/20 08:33:02;;;;;;;7.63;3.00;;;7.60;99.90;;;;;;4955627;29;20443;-72
2022/12/20 08:35:28;;;;;;;4.95;3.15;;;7.50;99.90;;;;;;4929985;29;20035;-72
2022/12/20 08:37:54;;;;;;;5.88;2.90;;;7.60;99.90;;;;;;4954427;29;20039;-72
2022/12/20 08:40:20;;;;;;;4.97;2.90;;;7.60;99.90;;;;;;4947550;29;20035;-73
2022/12/20 08:42:46;;;;;;;4.72;2.80;;;7.60;99.90;;;;;;4951680;29;20492;-73
2022/12/20 08:45:12;;;;;;;6.43;2.58;;;7.60;99.90;;;;;;4945231;29;20031;-72
2022/12/20 08:47:38;;;;;;;6.97;3.75;;;7.70;99.90;;;;;;4942425;29;20447;-71
2022/12/20 08:50:05;;;;;;;12.60;3.78;;;7.70;99.90;;;;;;4938351;29;20043;-72
2022/12/20 08:52:31;;;;;;;9.00;3.20;;;7.80;99.90;;;;;;4942031;29;20034;-71
2022/12/20 08:54:56;;;;;;;6.07;3.33;;;7.90;99.90;;;;;;4952025;29;20027;-73
2022/12/20 08:57:22;;;;;;;6.82;3.25;;;7.90;99.90;;;;;;4950615;29;20111;-73
2022/12/20 08:59:48;;;;;;;5.22;2.80;;;8.00;99.90;;;;;;4923045;29;20054;-71
2022/12/20 09:02:13;;;;;;;5.50;2.85;;;8.00;99.90;;;;;;4943439;29;20046;-72
2022/12/20 09:04:39;;;;;;;6.13;3.05;;;8.10;99.90;;;;;;4950339;29;20035;-71
2022/12/20 09:07:05;;;;;;;4.50;2.40;;;8.10;99.90;;;;;;4942418;29;20487;-71
2022/12/20 09:09:30;;;;;;;6.63;3.13;;;8.20;99.90;;;;;;4926397;29;20031;-72
2022/12/20 09:11:57;;;;;;;5.57;3.30;;;8.20;99.90;;;;;;4937649;29;20119;-72
2022/12/20 09:14:23;;;;;;;7.68;3.30;;;8.30;99.90;;;;;;4946879;29;20039;-72
2022/12/20 09:16:48;;;;;;;4.88;3.03;;;8.30;99.90;;;;;;4948705;29;20035;-73
2022/12/20 09:19:14;;;;;;;7.45;3.35;;;8.40;99.90;;;;;;4947291;29;20040;-72
2022/12/20 09:21:40;;;;;;;8.38;3.92;;;8.40;99.90;;;;;;4936693;29;20024;-72
2022/12/20 09:24:07;;;;;;;3.72;2.35;;;8.50;99.90;;;;;;4947642;29;20071;-71
2022/12/20 09:26:37;;;;;;;5.07;2.70;;;8.50;99.90;;;;;;4943793;29;20035;-72
2022/12/20 09:29:04;;;;;;;5.43;2.60;;;8.50;99.90;;;;;;4943785;29;20708;-73
2022/12/20 09:31:29;;;;;;;10.30;3.40;;;8.60;99.90;;;;;;4949814;29;20035;-72
2022/12/20 09:33:58;;;;;;;6.20;2.80;;;8.60;99.90;;;;;;4935735;29;20078;-72
2022/12/20 09:36:26;;;;;;;6.25;2.65;;;8.70;99.90;;;;;;4940105;29;20043;-71
2022/12/20 09:38:53;;;;;;;6.88;3.13;;;8.70;99.90;;;;;;4947296;29;20412;-72
2022/12/20 09:41:45;;;;;;;9.40;2.90;;;8.80;99.90;;;;;;4932464;29;20116;-72
2022/12/20 09:44:32;;;;;;;4.10;2.25;;;8.90;99.90;;;;;;4948687;29;20697;-74
2022/12/20 09:47:04;;;;;;;6.22;3.03;;;8.90;99.90;;;;;;4943409;29;20036;-74
2022/12/20 09:49:35;;;;;;;5.03;2.47;;;9.00;99.90;;;;;;4951800;29;20026;-74
2022/12/20 09:52:38;;;;;;;5.03;2.78;;;9.10;99.90;;;;;;4947112;29;20106;-74
2022/12/20 09:55:15;;;;;;;6.22;2.33;;;9.20;99.90;;;;;;4952857;29;20039;-71
2022/12/20 09:58:05;;;;;;;8.38;3.10;;;9.30;99.90;;;;;;4946909;29;20062;-71
2022/12/20 10:00:40;;;;;;;4.88;2.58;;;9.40;99.90;;;;;;4933327;29;20058;-72
2022/12/20 10:03:18;;;;;;;8.65;3.13;;;9.60;99.90;;;;;;4935863;29;20043;-73
2022/12/20 10:06:03;;;;;;;4.70;2.05;;;9.60;99.90;;;;;;4933889;29;20461;-73
2022/12/20 10:09:02;;;;;;;7.60;2.85;;;9.50;99.90;;;;;;4933596;29;20087;-72
2022/12/20 10:12:15;;;;;;;4.90;2.45;;;9.50;99.90;;;;;;4946960;29;20027;-73
2022/12/20 10:14:52;;;;;;;5.10;1.55;;;9.40;99.90;;;;;;4951279;29;20452;-73
2022/12/20 10:17:45;;;;;;;5.32;3.20;;;9.40;99.90;;;;;;4950632;29;20499;-71
2022/12/20 10:20:42;;;;;;;4.53;2.22;;;9.40;99.90;;;;;;4948290;29;20079;-67
2022/12/20 10:23:36;;;;;;;8.32;3.03;;;9.40;99.90;;;;;;4941239;29;20027;-75
2022/12/20 10:26:09;;;;;;;6.22;2.38;;;9.40;99.90;;;;;;4951013;29;20043;-73
2022/12/20 10:28:36;;;;;;;4.35;2.35;;;9.40;99.90;;;;;;4951891;28;20768;-71
2022/12/20 10:31:06;;;;;;;4.47;1.98;;;9.50;99.90;;;;;;4936039;29;20031;-76
2022/12/20 10:33:32;;;;;;;6.05;2.67;;;9.50;99.90;;;;;;4942419;29;20031;-72
2022/12/20 10:36:25;;;;;;;5.05;2.03;;;9.50;99.90;;;;;;4948746;29;20550;-72
2022/12/20 10:38:58;;;;;;;3.28;1.83;;;9.50;99.90;;;;;;4947275;29;20038;-72
2022/12/20 10:41:30;;;;;;;4.20;2.20;;;9.60;99.90;;;;;;4941689;29;20031;-71
2022/12/20 10:44:04;;;;;;;6.07;2.30;;;9.60;99.90;;;;;;4925308;29;20032;-73
2022/12/20 10:46:45;;;;;;;8.90;2.53;;;9.60;99.90;;;;;;4939943;29;20035;-72
2022/12/20 10:49:35;;;;;;;5.10;2.08;;;9.60;99.90;;;;;;4943207;29;20050;-72
2022/12/20 10:52:06;;;;;;;4.82;2.35;;;9.70;99.90;;;;;;4911823;28;20087;-69
2022/12/20 10:54:43;;;;;;;15.70;3.23;;;9.70;99.90;;;;;;4942994;29;20043;-75
2022/12/20 10:57:30;;;;;;;3.58;2.40;;;9.70;99.90;;;;;;4940983;29;20151;-72
2022/12/20 11:00:07;;;;;;;3.75;2.05;;;9.70;99.90;;;;;;4935753;29;20031;-73
2022/12/20 11:02:39;;;;;;;4.88;2.40;;;9.70;99.90;;;;;;4924256;29;20115;-73
2022/12/20 11:05:11;;;;;;;4.32;2.08;;;9.70;99.90;;;;;;4934715;29;20047;-71
2022/12/20 11:08:05;;;;;;;5.13;2.30;;;9.70;99.90;;;;;;4944814;29;20408;-72
2022/12/20 11:10:31;;;;;;;3.70;1.90;;;9.70;99.90;;;;;;4935800;29;20132;-73
2022/12/20 11:13:00;;;;;;;9.57;2.42;;;9.70;99.90;;;;;;4947295;29;20058;-72
2022/12/20 11:15:34;;;;;;;4.85;1.73;;;9.80;99.90;;;;;;4924120;29;20030;-75
2022/12/20 11:18:05;;;;;;;3.25;1.83;;;9.80;99.90;;;;;;4935119;28;20031;-74
2022/12/20 11:21:04;;;;;;;6.28;2.15;;;9.80;99.90;;;;;;4945062;29;20454;-74
2022/12/20 11:23:59;;;;;;;4.70;1.98;;;9.80;99.90;;;;;;4944616;29;20179;-73
2022/12/20 11:26:40;;;;;;;5.95;2.58;;;9.80;99.90;;;;;;4953914;28;20035;-74
2022/12/20 11:29:43;;;;;;;7.28;2.30;;;9.70;99.90;;;;;;4946180;29;20054;-76
2022/12/20 11:32:31;;;;;;;5.07;2.72;;;9.80;99.90;;;;;;4923379;29;20402;-74
2022/12/20 11:35:49;;;;;;;4.10;2.53;;;9.90;99.90;;;;;;4939901;29;20027;-73
2022/12/20 11:38:36;;;;;;;6.38;2.42;;;9.90;99.90;;;;;;4931136;29;20046;-73
2022/12/20 11:41:35;;;;;;;4.00;1.85;;;9.90;99.90;;;;;;4937958;29;20037;-72
2022/12/20 11:44:45;;;;;;;8.45;2.85;;;9.80;99.90;;;;;;4945562;29;20044;-72
2022/12/20 11:47:29;;;;;;;7.45;2.47;;;9.80;99.90;;;;;;4928332;29;20036;-73
2022/12/20 11:50:10;;;;;;;4.07;2.40;;;9.80;99.90;;;;;;4946233;29;20041;-72
2022/12/20 11:53:11;;;;;;;4.40;2.55;;;9.70;99.90;;;;;;4943787;29;20248;-74
2022/12/20 11:55:41;;;;;;;4.65;2.47;;;9.60;99.90;;;;;;4937880;29;20488;-73
2022/12/20 11:58:28;;;;;;;6.60;2.95;;;9.60;99.90;;;;;;4944798;29;21710;-73
2022/12/20 12:01:06;;;;;;;2.65;1.63;;;9.60;99.90;;;;;;4943693;29;20039;-73
2022/12/20 12:03:37;;;;;;;8.00;2.88;;;9.50;99.90;;;;;;4926474;29;20144;-73
2022/12/20 12:06:27;;;;;;;5.03;2.90;;;9.40;99.90;;;;;;4940658;29;20040;-75
2022/12/20 12:09:20;;;;;;;4.80;2.57;;;9.40;99.90;;;;;;4930809;29;20042;-73
2022/12/20 12:12:14;;;;;;;4.15;2.00;;;9.40;99.90;;;;;;4914295;29;20322;-74
2022/12/20 12:15:40;;;;;;;6.43;2.50;;;9.50;99.90;;;;;;4933282;29;20039;-73
2022/12/20 12:18:23;;;;;;;5.65;2.67;;;9.50;99.90;;;;;;4899854;29;20047;-74
2022/12/20 12:21:27;;;;;;;4.45;2.47;;;9.50;99.90;;;;;;4951716;29;20039;-74
2022/12/20 12:24:18;;;;;;;6.57;2.75;;;9.50;99.90;;;;;;4951112;29;20034;-74
2022/12/20 12:26:44;;;;;;;14.82;3.47;;;9.40;99.90;;;;;;4932415;29;20041;-74
2022/12/20 12:29:15;;;;;;;8.43;2.72;;;9.50;99.90;;;;;;4928493;29;20039;-73
2022/12/20 12:32:15;;;;;;;5.10;2.45;;;9.50;99.90;;;;;;4943164;29;20059;-74
2022/12/20 12:35:02;;;;;;;6.47;2.97;;;9.50;99.90;;;;;;4934011;29;20067;-74
2022/12/20 12:37:48;;;;;;;6.43;3.58;;;9.40;99.90;;;;;;4926038;29;20063;-74
2022/12/20 12:40:42;;;;;;;4.88;2.65;;;9.40;99.90;;;;;;4937390;29;20043;-75
2022/12/20 12:43:28;;;;;;;4.65;2.58;;;9.40;99.90;;;;;;4951142;29;20491;-73
2022/12/20 12:46:08;;;;;;;8.43;3.35;;;9.50;99.90;;;;;;4935541;29;20043;-75
2022/12/20 12:49:17;;;;;;;5.10;2.60;;;9.60;99.90;;;;;;4932654;29;20031;-75
2022/12/20 12:51:51;;;;;;;7.00;3.63;;;9.70;99.90;;;;;;4934679;29;20051;-72
2022/12/20 12:54:42;;;;;;;11.30;2.10;;;9.80;99.90;;;;;;4954433;29;20406;-76
2022/12/20 12:57:16;;;;;;;7.88;2.85;;;9.90;99.90;;;;;;4946942;29;20484;-76
2022/12/20 12:59:47;;;;;;;4.88;2.10;;;9.80;99.90;;;;;;4930344;29;20043;-74
2022/12/20 13:02:13;;;;;;;3.15;2.35;;;9.90;99.90;;;;;;4954880;29;20107;-72
2022/12/20 13:05:09;;;;;;;5.40;2.28;;;9.90;99.90;;;;;;4969101;23;20058;-71
2022/12/20 13:07:35;;;;;;;6.07;2.85;;;9.90;99.90;;;;;;4961371;28;20038;-71
2022/12/20 13:10:20;;;;;;;16.98;3.00;;;9.90;99.90;;;;;;4966381;28;20099;-71
2022/12/20 13:12:52;;;;;;;10.52;2.25;;;9.80;99.90;;;;;;4964081;28;20158;-71
2022/12/20 13:15:21;;;;;;;5.38;3.45;;;9.80;99.90;;;;;;4947674;28;20035;-71
2022/12/20 13:18:16;;;;;;;6.72;3.15;;;9.80;99.90;;;;;;4959498;28;20118;-70
2022/12/20 13:21:02;;;;;;;7.72;2.45;;;9.80;99.90;;;;;;4945703;28;20111;-71
2022/12/20 13:23:29;;;;;;;9.98;3.35;;;9.90;99.90;;;;;;4948454;28;20031;-71
2022/12/20 13:25:56;;;;;;;5.93;3.17;;;9.80;99.90;;;;;;4966461;28;20027;-72
2022/12/20 13:28:21;;;;;;;6.15;2.33;;;9.80;99.90;;;;;;4950672;28;20406;-73